EKBI

Billund Airport

Billund, Denmark
METAR EKBI 211250Z AUTO 27006KT 230V290 9999NDV BKN026/// OVC063/// 03/M02 Q1027
Observed Flight Rules
Feb-21 @ 12:50 UTC (27 minutes ago)
Wind Clouds
270° at 6 knots
  • Broken at 2,600' AGL
  • Overcast at 6,300' AGL
Temperatures Readings
Current 3°C / 37°F
Dewpoint -2°C / 28°F
Humidity 70%
Altimeter 30.32" Hg
Pressure 1027 hPa
Elevation 66
METAR EKBI 211250Z AUTO 27006KT 230V290 9999NDV BKN026/// OVC063/// 03/M02 Q1027
Observed Flight Rules
Feb-21 @ 12:50 UTC
(27 minutes ago)
Wind
270° at 6 knots
Clouds
  • Broken at 2,600' AGL
  • Overcast at 6,300' AGL
Temperature Dewpoint
3°C / 37°F -2°C / 28°F
Humidity Altimeter Pressure
70% 30.32" Hg 1027 hPa